createdAt,value
2023-02-07T00:00:30.670Z,101639.28
2023-02-07T00:01:33.116Z,101622.13
2023-02-07T00:02:34.746Z,101624.66
2023-02-07T00:03:36.421Z,101628.06
2023-02-07T00:04:37.916Z,101641.78
2023-02-07T00:05:39.734Z,101649.50
2023-02-07T00:06:41.364Z,101649.47
2023-02-07T00:07:43.052Z,101640.84
2023-02-07T00:08:44.987Z,101643.31
2023-02-07T00:09:46.486Z,101647.66
2023-02-07T00:10:47.999Z,101657.13
2023-02-07T00:11:49.476Z,101662.25
2023-02-07T00:12:51.001Z,101655.44
2023-02-07T00:13:55.064Z,101656.28
2023-02-07T00:14:56.568Z,101651.16
2023-02-07T00:15:58.133Z,101658.94
2023-02-07T00:16:59.624Z,101660.56
2023-02-07T00:18:01.141Z,101664.72
2023-02-07T00:19:03.240Z,101669.00
2023-02-07T00:20:05.800Z,101672.44
2023-02-07T00:21:20.306Z,101661.31
2023-02-07T00:22:21.832Z,101667.28
2023-02-07T00:23:23.337Z,101679.19
2023-02-07T00:24:25.009Z,101673.22
2023-02-07T00:25:26.543Z,101661.19
2023-02-07T00:26:28.378Z,101660.34
2023-02-07T00:27:29.865Z,101650.81
2023-02-07T00:28:31.998Z,101663.50
2023-02-07T00:29:33.648Z,101653.00
2023-02-07T00:30:35.213Z,101667.38
2023-02-07T00:31:39.068Z,101660.38
2023-02-07T00:32:40.602Z,101665.44
2023-02-07T00:33:43.375Z,101661.09
2023-02-07T00:34:47.372Z,101669.72
2023-02-07T00:35:57.428Z,101669.78
2023-02-07T00:36:58.971Z,101665.63
2023-02-07T00:38:01.919Z,101662.25
2023-02-07T00:39:08.366Z,101657.19
2023-02-07T00:40:10.254Z,101652.09
2023-02-07T00:41:12.472Z,101670.91
2023-02-07T00:42:14.187Z,101670.06
2023-02-07T00:43:28.145Z,101670.94
2023-02-07T00:44:31.868Z,101663.25
2023-02-07T00:45:33.392Z,101664.13
2023-02-07T00:46:35.704Z,101650.53
2023-02-07T00:47:37.197Z,101647.13
2023-02-07T00:48:38.998Z,101656.31
2023-02-07T00:49:42.981Z,101663.97
2023-02-07T00:50:44.535Z,101664.84
2023-02-07T00:51:46.051Z,101666.56
2023-02-07T00:52:48.270Z,101676.81
2023-02-07T00:53:49.755Z,101682.00
2023-02-07T00:54:52.031Z,101680.31
2023-02-07T00:55:54.353Z,101676.97
2023-02-07T00:56:55.878Z,101675.91
2023-02-07T00:57:57.394Z,101674.97
2023-02-07T00:58:59.713Z,101675.72
2023-02-07T01:00:01.250Z,101679.13
2023-02-07T01:01:03.293Z,101668.13
2023-02-07T01:02:05.073Z,101672.50
2023-02-07T01:03:09.231Z,101671.78
2023-02-07T01:04:10.766Z,101671.78
2023-02-07T01:05:12.439Z,101675.03
2023-02-07T01:06:14.196Z,101666.50
2023-02-07T01:07:15.725Z,101666.44
2023-02-07T01:08:17.395Z,101663.78
2023-02-07T01:09:18.954Z,101664.56
2023-02-07T01:10:21.033Z,101666.94
2023-02-07T01:11:22.600Z,101668.47
2023-02-07T01:12:24.215Z,101666.91
2023-02-07T01:13:25.745Z,101661.75
2023-02-07T01:14:27.505Z,101658.22
2023-02-07T01:15:29.093Z,101651.03
2023-02-07T01:16:33.681Z,101650.94
2023-02-07T01:17:35.229Z,101649.97
2023-02-07T01:18:36.720Z,101647.38
2023-02-07T01:19:38.245Z,101642.28
2023-02-07T01:20:40.202Z,101637.13
2023-02-07T01:21:41.731Z,101638.94
2023-02-07T01:22:43.267Z,101633.16
2023-02-07T01:23:45.084Z,101633.09
2023-02-07T01:24:46.587Z,101623.75
2023-02-07T01:25:48.794Z,101622.91
2023-02-07T01:26:50.272Z,101620.41
2023-02-07T01:27:52.577Z,101617.09
2023-02-07T01:28:55.232Z,101613.88
2023-02-07T01:29:56.778Z,101609.72
2023-02-07T01:30:58.375Z,101602.19
2023-02-07T01:31:59.933Z,101606.50
2023-02-07T01:33:01.488Z,101618.47
2023-02-07T01:34:05.412Z,101619.31
2023-02-07T01:35:07.488Z,101617.59
2023-02-07T01:36:11.687Z,101615.09
2023-02-07T01:37:13.220Z,101616.00
2023-02-07T01:38:16.318Z,101620.31
2023-02-07T01:39:18.015Z,101616.03
2023-02-07T01:40:21.216Z,101621.25
2023-02-07T01:41:25.645Z,101614.44
2023-02-07T01:42:28.600Z,101611.81
2023-02-07T01:43:30.194Z,101608.47
2023-02-07T01:44:37.746Z,101608.16
2023-02-07T01:45:40.547Z,101605.50
2023-02-07T01:46:42.326Z,101595.31
2023-02-07T01:47:43.947Z,101592.75
2023-02-07T01:48:45.516Z,101597.88
2023-02-07T01:49:49.031Z,101596.19
2023-02-07T01:50:55.367Z,101600.44
2023-02-07T01:52:01.395Z,101600.41
2023-02-07T01:53:06.199Z,101604.75
2023-02-07T01:54:11.379Z,101602.19
2023-02-07T01:55:21.411Z,101608.19
2023-02-07T01:56:31.652Z,101603.94
2023-02-07T01:57:35.233Z,101600.50
2023-02-07T01:58:38.108Z,101609.06
2023-02-07T01:59:41.163Z,101605.63
2023-02-07T02:00:44.011Z,101608.16
2023-02-07T02:01:46.773Z,101616.72
2023-02-07T02:02:48.492Z,101609.88
2023-02-07T02:03:54.607Z,101612.44
2023-02-07T02:04:58.444Z,101611.50
2023-02-07T02:06:00.278Z,101617.47
2023-02-07T02:07:02.216Z,101612.34
2023-02-07T02:08:04.290Z,101608.84
2023-02-07T02:09:12.352Z,101615.69
2023-02-07T02:10:16.752Z,101618.16
2023-02-07T02:11:27.241Z,101622.44
2023-02-07T02:12:50.510Z,101617.25
2023-02-07T02:14:18.505Z,101622.28
2023-02-07T02:15:35.569Z,101617.13
2023-02-07T02:16:52.718Z,101623.97
2023-02-07T02:18:18.231Z,101622.19
2023-02-07T02:19:44.349Z,101617.84
2023-02-07T02:21:10.068Z,101626.38
2023-02-07T02:22:38.743Z,101625.19
2023-02-07T02:24:01.991Z,101623.53
2023-02-07T02:25:58.616Z,101625.25
2023-02-07T02:27:06.047Z,101615.63
2023-02-07T02:28:41.422Z,101619.59
2023-02-07T02:30:06.794Z,101621.19
2023-02-07T02:31:27.361Z,101620.28
2023-02-07T02:33:00.490Z,101620.47
2023-02-07T02:34:01.939Z,101619.63
2023-02-07T02:35:32.690Z,101618.91
2023-02-07T02:37:16.082Z,101622.44
2023-02-07T02:38:32.301Z,101618.97
2023-02-07T02:39:45.766Z,101618.13
2023-02-07T02:41:03.304Z,101608.78
2023-02-07T02:42:17.042Z,101612.28
2023-02-07T02:43:26.246Z,101619.19
2023-02-07T02:45:23.244Z,101613.34
2023-02-07T02:46:32.722Z,101611.81
2023-02-07T02:47:34.661Z,101614.44
2023-02-07T02:48:38.869Z,101610.03
2023-02-07T02:49:41.302Z,101609.22
2023-02-07T02:50:47.003Z,101614.22
2023-02-07T02:51:51.574Z,101607.50
2023-02-07T02:52:53.511Z,101617.78
2023-02-07T02:53:59.869Z,101612.66
2023-02-07T02:55:07.516Z,101612.72
2023-02-07T02:56:27.936Z,101621.34
2023-02-07T02:57:32.289Z,101618.84
2023-02-07T02:58:49.089Z,101616.16
2023-02-07T03:00:21.485Z,101610.25
2023-02-07T03:01:41.691Z,101604.28
2023-02-07T03:02:43.400Z,101608.59
2023-02-07T03:04:09.615Z,101600.00
2023-02-07T03:05:46.126Z,101607.53
2023-02-07T03:07:00.182Z,101604.97
2023-02-07T03:08:21.274Z,101603.97
2023-02-07T03:09:48.129Z,101603.13
2023-02-07T03:11:04.788Z,101610.00
2023-02-07T03:12:15.917Z,101610.78
2023-02-07T03:13:23.387Z,101617.53
2023-02-07T03:14:42.776Z,101619.25
2023-02-07T03:15:59.861Z,101620.03
2023-02-07T03:17:37.045Z,101619.97
2023-02-07T03:18:51.571Z,101614.84
2023-02-07T03:20:08.200Z,101613.97
2023-02-07T03:21:24.398Z,101617.41
2023-02-07T03:22:29.700Z,101620.78
2023-02-07T03:23:33.219Z,101619.88
2023-02-07T03:24:36.027Z,101615.66
2023-02-07T03:25:41.405Z,101620.75
2023-02-07T03:26:45.688Z,101620.75
2023-02-07T03:27:48.487Z,101621.63
2023-02-07T03:28:53.099Z,101616.34
2023-02-07T03:29:58.972Z,101623.91
2023-02-07T03:31:03.055Z,101622.03
2023-02-07T03:32:07.749Z,101619.28
2023-02-07T03:33:12.935Z,101612.38
2023-02-07T03:34:21.037Z,101608.94
2023-02-07T03:35:46.617Z,101614.00
2023-02-07T03:36:58.302Z,101612.38
2023-02-07T03:38:00.905Z,101612.38
2023-02-07T03:39:02.684Z,101613.31
2023-02-07T03:40:05.524Z,101612.50
2023-02-07T03:41:16.497Z,101609.16
2023-02-07T03:42:25.204Z,101611.63
2023-02-07T03:43:33.490Z,101616.59
2023-02-07T03:44:36.394Z,101612.91
2023-02-07T03:45:38.482Z,101613.69
2023-02-07T03:46:40.340Z,101620.66
2023-02-07T03:47:42.008Z,101620.84
2023-02-07T03:48:43.591Z,101616.75
2023-02-07T03:49:45.145Z,101616.84
2023-02-07T03:50:46.622Z,101616.13
2023-02-07T03:51:48.873Z,101616.19
2023-02-07T03:52:50.332Z,101609.44
2023-02-07T03:53:51.884Z,101618.97
2023-02-07T03:54:53.408Z,101616.47
2023-02-07T03:55:54.891Z,101623.25
2023-02-07T03:56:56.450Z,101615.56
2023-02-07T03:57:58.012Z,101608.78
2023-02-07T03:58:59.532Z,101609.66
2023-02-07T04:00:01.047Z,101610.50
2023-02-07T04:01:02.592Z,101610.50
2023-02-07T04:02:04.741Z,101612.16
2023-02-07T04:03:06.272Z,101606.22
2023-02-07T04:04:11.020Z,101613.06
2023-02-07T04:05:12.543Z,101606.28
2023-02-07T04:06:14.072Z,101611.34
2023-02-07T04:07:15.797Z,101611.22
2023-02-07T04:08:17.577Z,101613.72
2023-02-07T04:09:19.101Z,101611.16
2023-02-07T04:10:20.890Z,101613.75
2023-02-07T04:11:22.438Z,101617.97
2023-02-07T04:12:23.944Z,101624.81
2023-02-07T04:13:25.858Z,101617.94
2023-02-07T04:14:27.651Z,101619.69
2023-02-07T04:15:29.125Z,101616.31
2023-02-07T04:16:30.698Z,101616.19
2023-02-07T04:17:32.396Z,101620.50
2023-02-07T04:18:34.252Z,101620.59
2023-02-07T04:19:35.861Z,101623.97
2023-02-07T04:20:37.353Z,101622.31
2023-02-07T04:21:39.069Z,101621.47
2023-02-07T04:22:40.671Z,101625.75
2023-02-07T04:23:42.179Z,101621.53
2023-02-07T04:24:43.678Z,101626.66
2023-02-07T04:25:45.201Z,101625.81
2023-02-07T04:26:49.340Z,101627.44
2023-02-07T04:27:50.857Z,101630.84
2023-02-07T04:28:52.377Z,101635.97
2023-02-07T04:29:53.910Z,101635.94
2023-02-07T04:30:55.704Z,101637.66
2023-02-07T04:31:58.909Z,101637.66
2023-02-07T04:33:00.648Z,101640.22
2023-02-07T04:34:02.167Z,101647.06
2023-02-07T04:35:03.841Z,101640.28
2023-02-07T04:36:05.819Z,101650.41
2023-02-07T04:37:07.314Z,101642.78
2023-02-07T04:38:08.852Z,101644.53
2023-02-07T04:39:10.350Z,101638.56
2023-02-07T04:40:17.708Z,101640.28
2023-02-07T04:41:19.400Z,101642.84
2023-02-07T04:42:20.877Z,101649.69
2023-02-07T04:43:22.381Z,101641.97
2023-02-07T04:44:23.872Z,101643.25
2023-02-07T04:45:25.382Z,101644.72
2023-02-07T04:46:26.914Z,101644.75
2023-02-07T04:47:28.417Z,101644.03
2023-02-07T04:48:30.008Z,101641.59
2023-02-07T04:49:34.139Z,101640.41
2023-02-07T04:50:35.952Z,101640.19
2023-02-07T04:51:37.483Z,101645.25
2023-02-07T04:52:38.976Z,101638.31
2023-02-07T04:53:40.477Z,101645.81
2023-02-07T04:54:41.959Z,101648.19
2023-02-07T04:55:43.473Z,101638.66
2023-02-07T04:56:44.949Z,101647.88
2023-02-07T04:57:46.455Z,101640.00
2023-02-07T04:58:48.006Z,101648.31
2023-02-07T04:59:49.492Z,101647.41
2023-02-07T05:00:52.855Z,101642.25
2023-02-07T05:01:54.443Z,101641.47
2023-02-07T05:02:56.009Z,101640.56
2023-02-07T05:03:57.495Z,101632.72
2023-02-07T05:04:58.854Z,101630.94
2023-02-07T05:06:00.434Z,101630.09
2023-02-07T05:07:01.899Z,101631.72
2023-02-07T05:08:03.314Z,101626.63
2023-02-07T05:09:04.834Z,101623.94
2023-02-07T05:10:06.565Z,101629.03
2023-02-07T05:11:08.097Z,101629.75
2023-02-07T05:12:09.668Z,101629.75
2023-02-07T05:13:11.250Z,101631.41
2023-02-07T05:14:12.743Z,101635.69
2023-02-07T05:15:14.145Z,101634.19
2023-02-07T05:16:16.169Z,101635.19
2023-02-07T05:17:17.911Z,101638.03
2023-02-07T05:18:19.689Z,101638.34
2023-02-07T05:19:21.269Z,101634.25
2023-02-07T05:20:24.172Z,101637.94
2023-02-07T05:21:25.907Z,101632.84
2023-02-07T05:22:27.959Z,101638.97
2023-02-07T05:23:29.518Z,101635.66
2023-02-07T05:24:31.069Z,101645.09
2023-02-07T05:25:32.734Z,101635.75
2023-02-07T05:26:34.265Z,101635.06
2023-02-07T05:27:35.906Z,101634.28
2023-02-07T05:28:37.433Z,101635.19
2023-02-07T05:29:38.956Z,101638.63
2023-02-07T05:30:40.545Z,101646.38
2023-02-07T05:31:42.145Z,101644.69
2023-02-07T05:32:43.724Z,101649.88
2023-02-07T05:33:45.225Z,101649.00
2023-02-07T05:34:46.740Z,101649.81
2023-02-07T05:35:48.274Z,101655.72
2023-02-07T05:36:49.760Z,101656.63
2023-02-07T05:37:51.265Z,101650.66
2023-02-07T05:38:52.752Z,101654.16
2023-02-07T05:39:54.250Z,101651.63
2023-02-07T05:40:55.653Z,101661.06
2023-02-07T05:41:57.160Z,101656.72
2023-02-07T05:42:58.786Z,101652.50
2023-02-07T05:44:00.291Z,101653.34
2023-02-07T05:45:01.918Z,101648.22
2023-02-07T05:46:03.468Z,101651.53
2023-02-07T05:47:05.038Z,101656.50
2023-02-07T05:48:06.823Z,101656.47
2023-02-07T05:49:08.962Z,101662.44
2023-02-07T05:50:10.449Z,101659.97
2023-02-07T05:51:11.980Z,101654.09
2023-02-07T05:52:13.485Z,101652.41
2023-02-07T05:53:15.030Z,101649.06
2023-02-07T05:54:16.536Z,101648.16
2023-02-07T05:55:18.460Z,101647.38
2023-02-07T05:56:20.002Z,101646.50
2023-02-07T05:57:21.538Z,101651.63
2023-02-07T05:58:23.134Z,101653.34
2023-02-07T05:59:24.674Z,101651.69
2023-02-07T06:00:26.277Z,101648.34
2023-02-07T06:01:27.815Z,101650.00
2023-02-07T06:02:29.425Z,101648.22
2023-02-07T06:03:30.987Z,101652.56
2023-02-07T06:04:32.499Z,101653.41
2023-02-07T06:05:34.705Z,101658.53
2023-02-07T06:06:36.560Z,101665.34
2023-02-07T06:07:38.312Z,101661.84
2023-02-07T06:08:39.829Z,101666.97
2023-02-07T06:09:41.392Z,101669.47
2023-02-07T06:10:42.904Z,101672.03
2023-02-07T06:11:44.442Z,101672.97
2023-02-07T06:12:46.586Z,101666.84
2023-02-07T06:13:48.104Z,101665.06
2023-02-07T06:14:49.499Z,101669.41
2023-02-07T06:15:51.078Z,101667.72
2023-02-07T06:16:52.624Z,101667.75
2023-02-07T06:17:54.142Z,101666.06
2023-02-07T06:18:55.628Z,101667.75
2023-02-07T06:19:57.146Z,101664.34
2023-02-07T06:20:58.762Z,101666.91
2023-02-07T06:22:00.295Z,101664.28
2023-02-07T06:23:02.647Z,101669.47
2023-02-07T06:24:04.483Z,101668.59
2023-02-07T06:25:06.362Z,101669.47
2023-02-07T06:26:12.207Z,101673.69
2023-02-07T06:27:15.707Z,101670.19
2023-02-07T06:28:17.239Z,101670.28
2023-02-07T06:29:19.134Z,101672.09
2023-02-07T06:30:20.797Z,101673.69
2023-02-07T06:31:22.451Z,101669.41
2023-02-07T06:32:24.039Z,101682.28
2023-02-07T06:33:25.682Z,101686.50
2023-02-07T06:34:27.191Z,101686.66
2023-02-07T06:35:28.696Z,101681.56
2023-02-07T06:36:30.241Z,101681.56
2023-02-07T06:37:32.075Z,101684.22
2023-02-07T06:38:33.641Z,101683.34
2023-02-07T06:39:35.114Z,101678.22
2023-02-07T06:40:36.719Z,101682.50
2023-02-07T06:41:38.228Z,101678.34
2023-02-07T06:42:39.777Z,101685.25
2023-02-07T06:43:41.266Z,101686.97
2023-02-07T06:44:42.816Z,101682.69
2023-02-07T06:45:44.422Z,101693.00
2023-02-07T06:46:45.900Z,101687.94
2023-02-07T06:47:47.432Z,101689.66
2023-02-07T06:48:49.167Z,101682.88
2023-02-07T06:49:50.881Z,101684.53
2023-02-07T06:50:52.390Z,101682.09
2023-02-07T06:51:53.933Z,101678.78
2023-02-07T06:52:55.565Z,101683.09
2023-02-07T06:53:57.190Z,101679.75
2023-02-07T06:54:58.703Z,101678.88
2023-02-07T06:56:00.268Z,101676.44
2023-02-07T06:57:01.798Z,101681.59
2023-02-07T06:58:04.044Z,101683.38
2023-02-07T06:59:05.571Z,101682.59
2023-02-07T07:00:07.660Z,101677.50
2023-02-07T07:01:09.175Z,101686.03
2023-02-07T07:02:12.670Z,101686.13
2023-02-07T07:03:15.463Z,101688.69
2023-02-07T07:04:17.109Z,101685.34
2023-02-07T07:05:18.711Z,101687.97
2023-02-07T07:06:20.429Z,101691.41
2023-02-07T07:07:22.069Z,101694.88
2023-02-07T07:08:23.877Z,101692.34
2023-02-07T07:09:25.453Z,101690.69
2023-02-07T07:10:27.214Z,101693.38
2023-02-07T07:11:29.000Z,101687.47
2023-02-07T07:12:30.576Z,101684.13
2023-02-07T07:13:32.216Z,101691.06
2023-02-07T07:14:33.707Z,101687.69
2023-02-07T07:15:35.212Z,101691.19
2023-02-07T07:16:37.134Z,101696.41
2023-02-07T07:17:38.994Z,101688.00
2023-02-07T07:18:41.129Z,101699.19
2023-02-07T07:19:42.617Z,101689.88
2023-02-07T07:20:44.201Z,101694.22
2023-02-07T07:21:45.738Z,101696.84
2023-02-07T07:22:48.608Z,101698.66
2023-02-07T07:23:50.168Z,101700.44
2023-02-07T07:24:51.754Z,101697.88
2023-02-07T07:25:53.263Z,101703.06
2023-02-07T07:26:54.827Z,101703.16
2023-02-07T07:27:56.484Z,101701.53
2023-02-07T07:28:58.037Z,101701.56
2023-02-07T07:29:59.601Z,101705.91
2023-02-07T07:31:08.691Z,101708.53
2023-02-07T07:32:10.330Z,101705.97
2023-02-07T07:33:11.846Z,101703.38
2023-02-07T07:34:13.367Z,101708.53
2023-02-07T07:35:15.153Z,101710.31
2023-02-07T07:36:16.628Z,101712.06
2023-02-07T07:37:18.142Z,101707.00
2023-02-07T07:38:19.664Z,101701.91
2023-02-07T07:39:21.164Z,101709.66
2023-02-07T07:40:22.688Z,101714.78
2023-02-07T07:41:24.205Z,101707.03
2023-02-07T07:42:25.923Z,101703.63
2023-02-07T07:43:44.060Z,101708.66
2023-02-07T07:44:45.593Z,101708.56
2023-02-07T07:45:55.326Z,101708.59
2023-02-07T07:46:57.304Z,101707.69
2023-02-07T07:47:58.912Z,101705.13
2023-02-07T07:49:00.527Z,101706.00
2023-02-07T07:50:02.185Z,101696.63
2023-02-07T07:51:03.950Z,101691.53
2023-02-07T07:52:05.914Z,101687.16
2023-02-07T07:53:07.552Z,101674.25
2023-02-07T07:54:09.077Z,101673.31
2023-02-07T07:55:10.588Z,101673.16
2023-02-07T07:56:12.110Z,101685.00
2023-02-07T07:57:13.663Z,101686.63
2023-02-07T07:58:15.227Z,101685.69
2023-02-07T07:59:23.880Z,101688.25
2023-02-07T08:00:25.857Z,101683.28
2023-02-07T08:01:27.753Z,101684.84
2023-02-07T08:02:29.351Z,101679.88
2023-02-07T08:03:30.983Z,101683.41
2023-02-07T08:04:32.578Z,101685.25
2023-02-07T08:05:34.058Z,101681.00
2023-02-07T08:06:35.603Z,101681.78
2023-02-07T08:07:37.375Z,101692.06
2023-02-07T08:08:39.041Z,101681.81
2023-02-07T08:09:40.573Z,101677.63
2023-02-07T08:10:42.513Z,101677.72
2023-02-07T08:11:44.136Z,101678.63
2023-02-07T08:12:45.626Z,101677.75
2023-02-07T08:13:47.113Z,101685.25
2023-02-07T08:14:48.712Z,101678.38
2023-02-07T08:15:50.296Z,101681.84
2023-02-07T08:16:51.835Z,101681.09
2023-02-07T08:17:53.328Z,101680.41
2023-02-07T08:18:54.835Z,101689.97
2023-02-07T08:19:56.388Z,101690.91
2023-02-07T08:20:57.874Z,101696.06
2023-02-07T08:21:59.386Z,101703.78
2023-02-07T08:23:00.960Z,101701.22
2023-02-07T08:24:02.461Z,101699.56
2023-02-07T08:25:04.418Z,101696.22
2023-02-07T08:26:06.264Z,101697.16
2023-02-07T08:27:08.062Z,101701.50
2023-02-07T08:28:10.214Z,101698.97
2023-02-07T08:29:11.918Z,101700.75
2023-02-07T08:30:14.499Z,101704.31
2023-02-07T08:31:16.120Z,101700.97
2023-02-07T08:32:17.720Z,101706.13
2023-02-07T08:33:19.287Z,101700.22
2023-02-07T08:34:20.825Z,101703.69
2023-02-07T08:35:22.373Z,101709.69
2023-02-07T08:36:23.927Z,101700.34
2023-02-07T08:37:25.654Z,101700.38
2023-02-07T08:38:27.425Z,101706.44
2023-02-07T08:39:28.951Z,101703.91
2023-02-07T08:40:30.959Z,101697.13
2023-02-07T08:41:32.452Z,101698.88
2023-02-07T08:42:34.044Z,101701.38
2023-02-07T08:43:35.601Z,101697.97
2023-02-07T08:44:37.172Z,101705.75
2023-02-07T08:45:40.278Z,101707.50
2023-02-07T08:46:41.888Z,101704.06
2023-02-07T08:47:44.781Z,101708.38
2023-02-07T08:48:46.315Z,101710.09
2023-02-07T08:49:47.833Z,101716.13
2023-02-07T08:50:49.349Z,101714.44
2023-02-07T08:51:50.861Z,101713.63
2023-02-07T08:52:52.425Z,101718.81
2023-02-07T08:53:54.040Z,101712.72
2023-02-07T08:54:55.613Z,101715.31
2023-02-07T08:55:57.193Z,101714.47
2023-02-07T08:56:58.939Z,101719.69
2023-02-07T08:58:00.472Z,101713.72
2023-02-07T08:59:02.033Z,101716.34
2023-02-07T09:00:06.053Z,101716.38
2023-02-07T09:01:08.221Z,101713.84
2023-02-07T09:02:11.692Z,101718.22
2023-02-07T09:03:14.420Z,101714.81
2023-02-07T09:04:16.212Z,101711.44
2023-02-07T09:05:18.016Z,101714.03
2023-02-07T09:06:19.614Z,101718.34
2023-02-07T09:07:21.150Z,101711.53
2023-02-07T09:08:22.684Z,101709.78
2023-02-07T09:09:24.398Z,101714.06
2023-02-07T09:10:26.330Z,101708.91
2023-02-07T09:11:27.948Z,101707.16
2023-02-07T09:12:29.473Z,101704.63
2023-02-07T09:13:31.036Z,101697.78
2023-02-07T09:14:32.675Z,101706.31
2023-02-07T09:15:34.212Z,101699.50
2023-02-07T09:16:35.753Z,101708.09
2023-02-07T09:17:37.320Z,101701.22
2023-02-07T09:18:39.412Z,101694.41
2023-02-07T09:19:40.955Z,101696.13
2023-02-07T09:20:43.863Z,101697.88
2023-02-07T09:21:45.583Z,101697.88
2023-02-07T09:22:47.204Z,101692.75
2023-02-07T09:23:49.211Z,101688.50
2023-02-07T09:24:50.827Z,101685.94
2023-02-07T09:25:52.927Z,101691.09
2023-02-07T09:26:54.461Z,101685.09
2023-02-07T09:27:56.071Z,101685.97
2023-02-07T09:28:57.619Z,101691.09
2023-02-07T09:29:59.676Z,101698.00
2023-02-07T09:31:07.796Z,101690.31
2023-02-07T09:32:09.421Z,101688.63
2023-02-07T09:33:11.917Z,101687.81
2023-02-07T09:34:13.886Z,101690.44
2023-02-07T09:35:15.479Z,101689.63
2023-02-07T09:36:23.204Z,101689.66
2023-02-07T09:37:24.829Z,101687.91
2023-02-07T09:38:26.347Z,101685.31
2023-02-07T09:39:27.883Z,101686.19
2023-02-07T09:40:33.419Z,101686.13
2023-02-07T09:42:03.479Z,101693.81
2023-02-07T09:43:34.131Z,101687.81
2023-02-07T09:44:54.201Z,101686.94
2023-02-07T09:45:59.753Z,101686.09
2023-02-07T09:47:21.300Z,101688.72
2023-02-07T09:48:27.862Z,101689.66
2023-02-07T09:49:41.432Z,101688.75
2023-02-07T09:50:50.949Z,101689.66
2023-02-07T09:51:54.291Z,101684.41
2023-02-07T09:53:03.254Z,101680.16
2023-02-07T09:54:12.502Z,101679.34
2023-02-07T09:55:21.954Z,101687.97
2023-02-07T09:56:26.279Z,101687.97
2023-02-07T09:57:38.062Z,101682.84
2023-02-07T09:58:50.277Z,101685.44
2023-02-07T10:00:02.821Z,101670.84
2023-02-07T10:01:15.682Z,101675.06
2023-02-07T10:02:22.670Z,101673.41
2023-02-07T10:03:25.234Z,101672.56
2023-02-07T10:04:36.681Z,101668.38
2023-02-07T10:05:45.902Z,101674.25
2023-02-07T10:06:54.073Z,101675.06
2023-02-07T10:07:55.625Z,101669.16
2023-02-07T10:09:00.385Z,101675.22
2023-02-07T10:10:01.958Z,101675.22
2023-02-07T10:11:12.434Z,101678.72
2023-02-07T10:12:19.576Z,101677.81
2023-02-07T10:13:42.993Z,101677.00
2023-02-07T10:14:44.421Z,101674.41
2023-02-07T10:16:31.791Z,101676.13
2023-02-07T10:18:07.158Z,101672.63
2023-02-07T10:19:56.670Z,101671.66
2023-02-07T10:21:36.493Z,101663.91
2023-02-07T10:23:00.932Z,101668.13
2023-02-07T10:24:05.014Z,101671.63
2023-02-07T10:25:11.093Z,101672.56
2023-02-07T10:26:30.770Z,101672.59
2023-02-07T10:27:42.282Z,101666.63
2023-02-07T10:28:58.525Z,101661.47
2023-02-07T10:30:15.888Z,101663.94
2023-02-07T10:31:18.757Z,101665.72
2023-02-07T10:32:24.596Z,101658.91
2023-02-07T10:33:31.901Z,101662.34
2023-02-07T10:34:41.656Z,101663.31
2023-02-07T10:35:45.108Z,101669.31
2023-02-07T10:36:48.741Z,101662.41
2023-02-07T10:37:53.690Z,101663.25
2023-02-07T10:39:12.919Z,101654.72
2023-02-07T10:40:22.851Z,101656.41
2023-02-07T10:41:36.910Z,101652.16
2023-02-07T10:42:40.273Z,101656.47
2023-02-07T10:43:45.603Z,101651.31
2023-02-07T10:44:50.293Z,101646.16
2023-02-07T10:46:00.808Z,101643.56
2023-02-07T10:47:07.292Z,101643.69
2023-02-07T10:48:15.227Z,101643.75
2023-02-07T10:49:25.927Z,101645.44
2023-02-07T10:50:31.002Z,101642.91
2023-02-07T10:51:38.958Z,101648.94
2023-02-07T10:52:45.828Z,101641.22
2023-02-07T10:53:54.999Z,101648.22
2023-02-07T10:55:03.128Z,101651.66
2023-02-07T10:56:04.864Z,101650.81
2023-02-07T10:57:18.042Z,101654.31
2023-02-07T10:58:24.805Z,101648.34
2023-02-07T10:59:35.317Z,101656.97
2023-02-07T11:00:37.437Z,101654.41
2023-02-07T11:01:39.468Z,101652.72
2023-02-07T11:02:53.838Z,101657.91
2023-02-07T11:03:55.577Z,101653.59
2023-02-07T11:04:58.684Z,101656.13
2023-02-07T11:06:02.657Z,101655.28
2023-02-07T11:07:06.696Z,101653.59
2023-02-07T11:08:14.130Z,101649.31
2023-02-07T11:09:24.595Z,101657.91
2023-02-07T11:10:34.145Z,101656.22
2023-02-07T11:11:36.347Z,101654.47
2023-02-07T11:12:48.975Z,101657.97
2023-02-07T11:13:52.283Z,101652.81
2023-02-07T11:15:02.364Z,101653.69
2023-02-07T11:16:07.574Z,101658.00
2023-02-07T11:17:21.044Z,101649.41
2023-02-07T11:18:59.156Z,101642.53
2023-02-07T11:20:05.756Z,101643.31
2023-02-07T11:21:24.316Z,101645.91
2023-02-07T11:22:28.769Z,101636.53
2023-02-07T11:23:30.402Z,101631.38
2023-02-07T11:24:36.880Z,101642.56
2023-02-07T11:25:42.911Z,101640.00
2023-02-07T11:27:07.851Z,101634.00
2023-02-07T11:28:25.164Z,101632.22
2023-02-07T11:29:26.784Z,101643.44
2023-02-07T11:30:29.888Z,101635.72
2023-02-07T11:31:34.696Z,101645.19
2023-02-07T11:32:37.782Z,101637.44
2023-02-07T11:33:39.373Z,101641.75
2023-02-07T11:34:58.996Z,101635.75
2023-02-07T11:36:16.843Z,101643.47
2023-02-07T11:37:31.695Z,101634.00
2023-02-07T11:38:41.157Z,101631.44
2023-02-07T11:39:46.199Z,101633.06
2023-02-07T11:40:48.968Z,101624.41
2023-02-07T11:42:01.700Z,101629.59
2023-02-07T11:43:09.042Z,101624.47
2023-02-07T11:44:17.984Z,101624.44
2023-02-07T11:45:22.711Z,101623.66
2023-02-07T11:46:46.783Z,101624.63
2023-02-07T11:47:52.825Z,101622.06
2023-02-07T11:48:57.735Z,101626.31
2023-02-07T11:50:03.452Z,101622.94
2023-02-07T11:51:08.129Z,101635.03
2023-02-07T11:52:10.579Z,101627.34
2023-02-07T11:53:23.812Z,101627.38
2023-02-07T11:54:26.815Z,101624.75
2023-02-07T11:55:33.946Z,101624.78
2023-02-07T11:56:44.428Z,101627.38
2023-02-07T11:57:46.451Z,101627.34
2023-02-07T11:58:48.276Z,101625.63
2023-02-07T12:00:06.331Z,101621.34
2023-02-07T12:01:18.507Z,101620.53
2023-02-07T12:02:26.097Z,101618.84
2023-02-07T12:03:31.941Z,101617.13
2023-02-07T12:04:37.204Z,101618.00
2023-02-07T12:05:43.368Z,101622.31
2023-02-07T12:06:53.716Z,101627.47
2023-02-07T12:08:06.325Z,101625.78
2023-02-07T12:09:35.285Z,101618.91
2023-02-07T12:10:39.843Z,101623.22
2023-02-07T12:11:42.663Z,101624.91
2023-02-07T12:12:53.876Z,101619.78
2023-02-07T12:14:03.196Z,101626.66
2023-02-07T12:15:15.222Z,101617.22
2023-02-07T12:16:23.097Z,101624.97
2023-02-07T12:17:37.624Z,101621.53
2023-02-07T12:18:48.453Z,101624.13
2023-02-07T12:19:58.797Z,101627.56
2023-02-07T12:21:18.686Z,101620.72
2023-02-07T12:22:25.141Z,101624.09
2023-02-07T12:23:57.214Z,101620.66
2023-02-07T12:25:06.792Z,101620.66